Time;durP1;ratioP1;P1;durP2;ratioP2;P2;SDS_P1;SDS_P2;PMS_P1;PMS_P2;Temp;Humidity;BMP_temperature;BMP_pressure;BME280_temperature;BME280_humidity;BME280_pressure;Samples;Min_cycle;Max_cycle;Signal;HPM_P1;HPM_P2
2023/12/08 00:00:07;;;;;;;12.45;8.15;;;4.60;89.00;;;;;;5134410;27;20020;-35
2023/12/08 00:02:33;;;;;;;12.15;8.00;;;4.60;89.50;;;;;;5134369;27;20029;-33
2023/12/08 00:04:58;;;;;;;13.90;7.68;;;4.60;89.90;;;;;;5134405;27;20023;-35
2023/12/08 00:07:24;;;;;;;13.27;8.93;;;4.60;89.90;;;;;;5134461;27;20023;-34
2023/12/08 00:09:49;;;;;;;12.68;8.15;;;4.60;89.50;;;;;;5134503;27;20011;-34
2023/12/08 00:12:15;;;;;;;13.60;8.80;;;4.60;89.30;;;;;;5134608;27;20027;-35
2023/12/08 00:14:41;;;;;;;14.45;9.15;;;4.60;89.40;;;;;;5134687;27;20093;-35
2023/12/08 00:17:07;;;;;;;13.77;8.77;;;4.60;89.20;;;;;;5133902;27;20106;-36
2023/12/08 00:19:32;;;;;;;12.43;8.15;;;4.60;89.00;;;;;;5133714;27;20387;-35
2023/12/08 00:21:58;;;;;;;14.43;8.23;;;4.60;88.80;;;;;;5134012;27;20039;-34
2023/12/08 00:24:24;;;;;;;13.52;8.35;;;4.60;88.50;;;;;;5134480;27;20027;-35
2023/12/08 00:26:50;;;;;;;12.68;8.27;;;4.60;88.60;;;;;;5134259;27;20023;-34
2023/12/08 00:29:19;;;;;;;11.45;7.82;;;4.60;88.80;;;;;;5134156;27;20356;-35
2023/12/08 00:31:45;;;;;;;11.18;7.22;;;4.60;88.70;;;;;;5133808;27;20047;-35
2023/12/08 00:34:10;;;;;;;11.88;8.10;;;4.60;88.60;;;;;;5134274;27;20015;-35
2023/12/08 00:36:36;;;;;;;11.70;7.80;;;4.70;88.50;;;;;;5134038;27;20051;-35
2023/12/08 00:39:02;;;;;;;13.02;8.02;;;4.60;88.30;;;;;;5133986;27;20027;-34
2023/12/08 00:41:27;;;;;;;13.23;8.73;;;4.70;88.80;;;;;;5134139;27;20019;-36
2023/12/08 00:43:53;;;;;;;13.10;7.75;;;4.70;88.00;;;;;;5134051;27;20355;-33
2023/12/08 00:46:19;;;;;;;10.50;7.53;;;4.60;87.90;;;;;;5134166;27;20111;-36
2023/12/08 00:48:44;;;;;;;10.13;7.38;;;4.70;87.90;;;;;;5133968;27;20018;-36
2023/12/08 00:51:13;;;;;;;13.07;8.85;;;4.70;87.90;;;;;;5133823;27;20035;-34
2023/12/08 00:53:41;;;;;;;10.88;7.72;;;4.70;87.80;;;;;;5133848;27;20076;-35
2023/12/08 00:56:07;;;;;;;14.75;8.82;;;4.70;87.80;;;;;;5133906;27;20466;-36
2023/12/08 00:58:33;;;;;;;10.82;7.05;;;4.70;87.70;;;;;;5133687;27;20443;-36
2023/12/08 01:00:58;;;;;;;13.60;7.85;;;4.70;87.60;;;;;;5133434;27;20039;-35
2023/12/08 01:03:24;;;;;;;11.13;7.22;;;4.70;87.40;;;;;;5133448;27;20027;-36
2023/12/08 01:05:49;;;;;;;10.93;7.45;;;4.70;87.40;;;;;;5133582;27;20019;-35
2023/12/08 01:08:15;;;;;;;10.57;7.13;;;4.70;88.00;;;;;;5133378;27;20023;-36
2023/12/08 01:10:41;;;;;;;9.75;6.75;;;4.70;87.20;;;;;;5133266;27;20378;-36
2023/12/08 01:13:06;;;;;;;11.70;6.95;;;4.80;87.20;;;;;;5133289;27;20144;-35
2023/12/08 01:15:33;;;;;;;10.35;7.00;;;4.80;87.20;;;;;;5132064;27;20060;-36
2023/12/08 01:17:58;;;;;;;10.30;7.15;;;4.80;87.10;;;;;;5133349;27;20362;-35
2023/12/08 01:20:24;;;;;;;10.27;6.72;;;4.80;86.90;;;;;;5132906;27;20390;-35
2023/12/08 01:22:51;;;;;;;11.38;7.30;;;4.80;86.90;;;;;;5133231;27;20027;-36
2023/12/08 01:25:17;;;;;;;11.63;7.13;;;4.80;86.80;;;;;;5132844;27;20474;-35
2023/12/08 01:27:42;;;;;;;10.60;7.32;;;4.80;86.80;;;;;;5133194;27;20011;-35
2023/12/08 01:30:08;;;;;;;10.15;6.97;;;4.80;86.70;;;;;;5130467;27;20453;-35
2023/12/08 01:32:34;;;;;;;9.80;6.32;;;4.80;86.60;;;;;;5133068;27;20023;-35
2023/12/08 01:34:59;;;;;;;11.55;7.68;;;4.80;87.30;;;;;;5132910;27;20404;-34
2023/12/08 01:37:25;;;;;;;11.32;7.32;;;4.80;86.60;;;;;;5132745;27;20058;-35
2023/12/08 01:39:50;;;;;;;9.70;7.13;;;4.80;86.50;;;;;;5132820;27;20019;-34
2023/12/08 01:42:16;;;;;;;9.02;6.53;;;4.80;86.40;;;;;;5132850;27;20027;-35
2023/12/08 01:44:41;;;;;;;11.55;7.95;;;4.80;86.30;;;;;;5132648;27;20498;-35
2023/12/08 01:47:07;;;;;;;10.63;7.35;;;4.80;86.30;;;;;;5132753;27;20015;-37
2023/12/08 01:49:38;;;;;;;11.20;6.95;;;4.80;86.20;;;;;;5132602;27;20019;-35
2023/12/08 01:52:05;;;;;;;10.07;7.13;;;4.80;86.20;;;;;;5132862;27;20094;-35
2023/12/08 01:54:31;;;;;;;9.98;6.80;;;4.80;86.20;;;;;;5132603;27;20068;-35
2023/12/08 01:56:58;;;;;;;10.20;7.20;;;4.80;86.10;;;;;;5132878;27;20030;-36
2023/12/08 01:59:24;;;;;;;9.43;6.72;;;4.80;86.00;;;;;;5132705;27;20031;-35
2023/12/08 02:01:49;;;;;;;14.80;7.78;;;4.80;86.00;;;;;;5131998;27;20497;-34
2023/12/08 02:04:15;;;;;;;10.93;6.75;;;4.80;85.90;;;;;;5132062;27;20030;-36
2023/12/08 02:06:41;;;;;;;10.93;7.15;;;4.80;85.80;;;;;;5132434;27;20077;-36
2023/12/08 02:09:07;;;;;;;10.88;6.97;;;4.80;85.80;;;;;;5132526;27;20059;-35
2023/12/08 02:11:34;;;;;;;10.13;6.85;;;4.80;85.80;;;;;;5132435;27;20383;-34
2023/12/08 02:14:01;;;;;;;10.82;7.03;;;4.80;85.80;;;;;;5132646;27;20054;-36
2023/12/08 02:16:45;;;;;;;7.97;6.22;;;4.80;85.70;;;;;;5132363;28;20155;-35
2023/12/08 02:19:13;;;;;;;9.52;6.85;;;4.90;85.70;;;;;;5132436;27;20027;-34
2023/12/08 02:21:39;;;;;;;9.77;7.00;;;4.90;85.60;;;;;;5132412;27;20374;-35
2023/12/08 02:24:04;;;;;;;9.90;7.22;;;4.90;85.60;;;;;;5132137;27;20114;-35
2023/12/08 02:26:30;;;;;;;9.30;6.63;;;4.90;85.50;;;;;;5132147;27;20098;-35
2023/12/08 02:28:56;;;;;;;9.18;6.40;;;4.90;85.40;;;;;;5132441;27;20073;-36
2023/12/08 02:31:35;;;;;;;11.90;7.43;;;4.90;85.40;;;;;;5132143;27;20043;-35
2023/12/08 02:34:02;;;;;;;9.68;6.47;;;5.00;85.50;;;;;;5132550;27;20035;-35
2023/12/08 02:36:28;;;;;;;9.68;6.88;;;5.00;86.10;;;;;;5132372;27;20075;-35
2023/12/08 02:38:54;;;;;;;10.02;7.10;;;5.00;85.40;;;;;;5130992;28;20023;-35
2023/12/08 02:41:20;;;;;;;8.85;6.60;;;5.00;85.40;;;;;;5133622;27;20019;-36
2023/12/08 02:43:46;;;;;;;10.40;6.72;;;5.00;85.40;;;;;;5136262;27;20027;-37
2023/12/08 02:46:12;;;;;;;10.90;6.75;;;5.00;85.40;;;;;;5136338;27;20076;-34
2023/12/08 02:48:37;;;;;;;9.32;6.57;;;5.00;85.50;;;;;;5136458;27;20443;-36
2023/12/08 02:51:03;;;;;;;8.90;6.60;;;5.00;85.40;;;;;;5135771;27;20024;-34
2023/12/08 02:53:29;;;;;;;10.25;6.88;;;4.90;85.40;;;;;;5136408;27;20019;-35
2023/12/08 02:55:54;;;;;;;12.48;7.25;;;4.90;85.50;;;;;;5136087;27;20022;-35
2023/12/08 02:58:20;;;;;;;10.73;7.28;;;4.90;85.60;;;;;;5136049;27;20019;-35
2023/12/08 03:00:46;;;;;;;11.07;7.80;;;4.90;85.60;;;;;;5136136;27;20053;-35
2023/12/08 03:03:11;;;;;;;10.35;7.60;;;4.90;85.70;;;;;;5135722;27;20047;-34
2023/12/08 03:05:37;;;;;;;9.55;6.88;;;4.80;85.80;;;;;;5135923;27;20047;-35
2023/12/08 03:08:02;;;;;;;9.48;6.82;;;4.80;85.90;;;;;;5135824;27;20463;-35
2023/12/08 03:10:28;;;;;;;9.45;7.10;;;4.80;85.90;;;;;;5136069;27;20061;-35
2023/12/08 03:12:53;;;;;;;10.82;7.15;;;4.80;86.00;;;;;;5136006;27;20018;-34
2023/12/08 03:15:19;;;;;;;13.13;7.53;;;4.80;86.00;;;;;;5135618;27;20026;-33
2023/12/08 03:17:44;;;;;;;10.77;7.07;;;4.70;86.00;;;;;;5135402;27;20023;-42
2023/12/08 03:20:10;;;;;;;11.15;7.35;;;4.70;86.20;;;;;;5135431;27;20023;-33
2023/12/08 03:22:36;;;;;;;10.70;7.47;;;4.70;86.30;;;;;;5135758;27;20031;-34
2023/12/08 03:25:01;;;;;;;11.55;6.93;;;4.70;86.40;;;;;;5135402;27;20050;-33
2023/12/08 03:27:27;;;;;;;10.70;7.20;;;4.60;86.50;;;;;;5135233;27;20019;-34
2023/12/08 03:29:52;;;;;;;10.85;7.53;;;4.60;86.70;;;;;;5135438;27;20023;-33
2023/12/08 03:32:18;;;;;;;11.45;7.40;;;4.60;86.70;;;;;;5135315;27;20454;-34
2023/12/08 03:34:43;;;;;;;10.05;6.80;;;4.50;86.80;;;;;;5135257;27;20459;-33
2023/12/08 03:37:09;;;;;;;11.45;7.93;;;4.50;86.90;;;;;;5135663;27;20023;-33
2023/12/08 03:39:34;;;;;;;12.50;7.47;;;4.50;87.00;;;;;;5134994;27;20046;-32
2023/12/08 03:42:00;;;;;;;11.43;7.65;;;4.50;87.10;;;;;;5135200;27;20102;-32
2023/12/08 03:44:25;;;;;;;10.63;7.32;;;4.50;87.20;;;;;;5134862;27;20075;-33
2023/12/08 03:46:51;;;;;;;11.07;8.00;;;4.50;87.30;;;;;;5135292;27;20024;-32
2023/12/08 03:49:17;;;;;;;11.27;7.50;;;4.50;87.30;;;;;;5134848;27;20379;-33
2023/12/08 03:51:43;;;;;;;11.13;7.35;;;4.50;88.00;;;;;;5134860;27;20024;-33
2023/12/08 03:54:08;;;;;;;11.90;7.72;;;4.50;87.40;;;;;;5133785;27;20015;-33
2023/12/08 03:56:34;;;;;;;11.43;7.85;;;4.50;87.60;;;;;;5135169;27;20024;-33
2023/12/08 03:58:59;;;;;;;11.98;7.90;;;4.50;87.70;;;;;;5134604;27;20019;-32
2023/12/08 04:01:26;;;;;;;11.10;7.57;;;4.50;87.70;;;;;;5134781;27;20035;-32
2023/12/08 04:03:51;;;;;;;9.98;7.43;;;4.50;87.80;;;;;;5134452;27;20030;-32
2023/12/08 04:06:17;;;;;;;11.55;7.53;;;4.40;88.40;;;;;;5134867;27;20027;-32
2023/12/08 04:08:42;;;;;;;11.50;7.72;;;4.40;87.80;;;;;;5134611;27;20135;-33
2023/12/08 04:11:08;;;;;;;10.20;7.55;;;4.40;87.80;;;;;;5134562;27;20019;-32
2023/12/08 04:13:34;;;;;;;11.75;8.18;;;4.40;87.90;;;;;;5134366;27;20051;-33
2023/12/08 04:15:59;;;;;;;11.10;7.63;;;4.40;88.00;;;;;;5134705;27;20059;-33
2023/12/08 04:18:25;;;;;;;11.93;8.23;;;4.40;88.00;;;;;;5134379;27;20028;-32
2023/12/08 04:20:50;;;;;;;10.70;7.28;;;4.40;88.00;;;;;;5134234;27;20024;-32
2023/12/08 04:23:16;;;;;;;12.88;8.10;;;4.30;88.00;;;;;;5133053;27;20096;-34
2023/12/08 04:25:41;;;;;;;11.75;7.93;;;4.30;88.10;;;;;;5134119;27;20064;-32
2023/12/08 04:28:07;;;;;;;11.90;8.27;;;4.30;88.10;;;;;;5134280;27;20023;-33
2023/12/08 04:30:32;;;;;;;12.13;8.32;;;4.20;88.20;;;;;;5133663;27;20019;-32
2023/12/08 04:32:58;;;;;;;12.48;7.60;;;4.20;88.30;;;;;;5134160;27;20027;-33
2023/12/08 04:35:24;;;;;;;12.13;7.70;;;4.20;88.30;;;;;;5134335;27;20103;-33
2023/12/08 04:37:50;;;;;;;12.48;7.72;;;4.30;88.40;;;;;;5134278;27;20107;-33
2023/12/08 04:40:16;;;;;;;11.43;7.82;;;4.30;88.50;;;;;;5133930;27;20497;-32
2023/12/08 04:42:42;;;;;;;12.45;8.57;;;4.30;88.50;;;;;;5134190;27;20027;-33
2023/12/08 04:45:09;;;;;;;12.70;8.30;;;4.30;88.50;;;;;;5134049;27;20019;-34
2023/12/08 04:47:35;;;;;;;11.70;7.50;;;4.30;88.60;;;;;;5133735;27;20038;-32
2023/12/08 04:50:02;;;;;;;13.15;8.85;;;4.30;88.60;;;;;;5133912;27;20027;-32
2023/12/08 04:52:28;;;;;;;11.75;8.52;;;4.30;88.70;;;;;;5133575;27;20020;-32
2023/12/08 04:54:53;;;;;;;13.15;8.60;;;4.30;88.80;;;;;;5133766;27;20026;-32
2023/12/08 04:57:19;;;;;;;12.88;8.38;;;4.30;88.80;;;;;;5133738;27;20419;-33
2023/12/08 04:59:44;;;;;;;11.23;8.00;;;4.30;88.80;;;;;;5132508;27;20023;-30
2023/12/08 05:02:10;;;;;;;12.57;8.90;;;4.30;88.80;;;;;;5132095;27;20034;-32
2023/12/08 05:04:35;;;;;;;12.68;8.57;;;4.40;88.80;;;;;;5133417;27;20020;-32
2023/12/08 05:07:01;;;;;;;13.68;8.90;;;4.30;88.80;;;;;;5133269;27;20522;-32
2023/12/08 05:09:27;;;;;;;12.38;7.93;;;4.40;89.00;;;;;;5133466;27;20027;-33
2023/12/08 05:11:52;;;;;;;14.55;9.23;;;4.40;89.00;;;;;;5131885;27;20030;-32
2023/12/08 05:14:19;;;;;;;12.68;8.40;;;4.40;89.00;;;;;;5131919;27;20037;-33
2023/12/08 05:16:44;;;;;;;13.45;8.52;;;4.40;89.00;;;;;;5131290;27;20471;-32
2023/12/08 05:19:10;;;;;;;12.43;8.68;;;4.40;89.00;;;;;;5132963;27;20308;-33
2023/12/08 05:21:36;;;;;;;14.18;9.15;;;4.40;89.00;;;;;;5132726;27;20114;-32
2023/12/08 05:24:01;;;;;;;11.50;8.48;;;4.40;89.10;;;;;;5131880;27;20456;-32
2023/12/08 05:26:27;;;;;;;14.75;9.45;;;4.40;89.10;;;;;;5132946;27;20535;-32
2023/12/08 05:28:52;;;;;;;14.50;9.23;;;4.40;89.00;;;;;;5133141;27;20107;-32
2023/12/08 05:31:18;;;;;;;14.13;9.40;;;4.40;89.10;;;;;;5132709;27;20039;-32
2023/12/08 05:33:44;;;;;;;13.40;9.15;;;4.40;89.10;;;;;;5133048;27;20027;-32
2023/12/08 05:36:10;;;;;;;17.05;9.75;;;4.40;89.20;;;;;;5133064;27;20050;-31
2023/12/08 05:38:35;;;;;;;15.63;9.10;;;4.40;89.80;;;;;;5132876;27;20035;-33
2023/12/08 05:41:03;;;;;;;14.77;9.68;;;4.40;89.20;;;;;;5132927;27;20509;-32
2023/12/08 05:43:29;;;;;;;14.98;9.70;;;4.40;89.30;;;;;;5133081;27;20497;-34
2023/12/08 05:45:54;;;;;;;14.25;8.63;;;4.40;89.20;;;;;;5133075;27;20047;-38
2023/12/08 05:48:21;;;;;;;13.98;9.65;;;4.40;89.30;;;;;;5132849;27;20034;-33
2023/12/08 05:50:46;;;;;;;13.90;9.80;;;4.40;89.20;;;;;;5132678;27;20027;-33
2023/12/08 05:53:13;;;;;;;14.85;9.38;;;4.40;89.20;;;;;;5132739;27;20390;-35
2023/12/08 05:55:39;;;;;;;14.13;9.70;;;4.40;89.20;;;;;;5132545;27;20144;-33
2023/12/08 05:58:04;;;;;;;14.18;8.45;;;4.40;89.30;;;;;;5132597;27;20080;-32
2023/12/08 06:00:30;;;;;;;15.20;9.05;;;4.40;89.30;;;;;;5132870;27;20034;-32
2023/12/08 06:02:55;;;;;;;14.07;9.20;;;4.40;89.40;;;;;;5132481;27;20067;-32
2023/12/08 06:05:21;;;;;;;14.32;9.32;;;4.40;89.40;;;;;;5132883;27;20379;-32
2023/12/08 06:07:46;;;;;;;16.20;9.75;;;4.40;89.40;;;;;;5132404;27;20037;-32
2023/12/08 06:10:12;;;;;;;16.48;10.27;;;4.40;89.40;;;;;;5132495;27;20425;-34
2023/12/08 06:12:39;;;;;;;14.13;9.15;;;4.40;89.40;;;;;;5132712;27;20427;-34
2023/12/08 06:15:06;;;;;;;15.95;9.82;;;4.40;89.40;;;;;;5131208;27;20023;-32
2023/12/08 06:17:32;;;;;;;15.85;10.00;;;4.40;89.40;;;;;;5135991;27;20038;-33
2023/12/08 06:19:58;;;;;;;15.23;9.50;;;4.50;89.50;;;;;;5136539;27;20027;-33
2023/12/08 06:22:23;;;;;;;15.68;10.52;;;4.50;89.50;;;;;;5136766;27;20019;-31
2023/12/08 06:24:49;;;;;;;15.88;10.18;;;4.50;89.50;;;;;;5136541;27;20031;-33
2023/12/08 06:27:15;;;;;;;16.15;10.43;;;4.50;89.50;;;;;;5136699;27;20027;-32
2023/12/08 06:29:40;;;;;;;15.32;10.40;;;4.50;89.60;;;;;;5136403;27;20023;-32
2023/12/08 06:32:06;;;;;;;15.88;10.00;;;4.50;89.70;;;;;;5136368;27;20399;-35
2023/12/08 06:34:32;;;;;;;15.43;10.63;;;4.50;89.60;;;;;;5136681;27;20038;-32
2023/12/08 06:36:58;;;;;;;14.38;9.13;;;4.50;89.70;;;;;;5136345;27;20494;-33
2023/12/08 06:39:23;;;;;;;16.50;11.32;;;4.50;90.10;;;;;;5136272;27;20108;-34
2023/12/08 06:41:49;;;;;;;17.17;10.95;;;4.50;89.70;;;;;;5136367;27;20031;-33
2023/12/08 06:44:14;;;;;;;18.13;10.93;;;4.50;89.70;;;;;;5136442;27;20038;-33
2023/12/08 06:46:40;;;;;;;16.42;10.38;;;4.50;89.70;;;;;;5136193;27;20429;-32
2023/12/08 06:49:05;;;;;;;16.02;10.65;;;4.50;89.70;;;;;;5135916;27;20033;-32
2023/12/08 06:51:35;;;;;;;16.42;10.30;;;4.50;89.70;;;;;;5136037;27;20043;-31
2023/12/08 06:54:02;;;;;;;16.58;11.02;;;4.50;89.70;;;;;;5136384;27;20026;-33
2023/12/08 06:56:27;;;;;;;16.65;10.73;;;4.50;89.70;;;;;;5136166;27;20027;-34
2023/12/08 06:58:53;;;;;;;16.02;10.80;;;4.50;89.80;;;;;;5136177;27;20474;-32
2023/12/08 07:01:19;;;;;;;19.98;11.90;;;4.60;89.80;;;;;;5135986;27;20084;-34
2023/12/08 07:03:44;;;;;;;19.42;11.73;;;4.60;89.70;;;;;;5135618;27;20031;-33
2023/12/08 07:06:10;;;;;;;17.98;10.88;;;4.50;89.70;;;;;;5135782;27;20110;-33
2023/12/08 07:08:35;;;;;;;17.35;11.05;;;4.50;89.90;;;;;;5136051;27;20122;-33
2023/12/08 07:11:01;;;;;;;17.95;11.52;;;4.50;89.90;;;;;;5135692;27;20024;-33
2023/12/08 07:13:26;;;;;;;17.80;11.48;;;4.50;89.90;;;;;;5135579;27;20023;-32
2023/12/08 07:15:52;;;;;;;16.33;10.77;;;4.50;90.00;;;;;;5135642;27;20304;-32
2023/12/08 07:18:18;;;;;;;14.52;10.15;;;4.50;90.00;;;;;;5135758;27;20053;-33
2023/12/08 07:20:43;;;;;;;16.63;10.20;;;4.50;90.00;;;;;;5135402;27;20026;-33
2023/12/08 07:23:09;;;;;;;16.45;10.90;;;4.50;90.00;;;;;;5135518;27;20023;-33
2023/12/08 07:25:34;;;;;;;19.08;11.88;;;4.50;90.00;;;;;;5135326;27;20027;-33
2023/12/08 07:28:00;;;;;;;17.20;10.57;;;4.50;90.00;;;;;;5135281;27;20031;-33
2023/12/08 07:30:26;;;;;;;19.95;10.80;;;4.50;90.00;;;;;;5134912;27;20147;-33
2023/12/08 07:32:51;;;;;;;16.60;10.82;;;4.60;90.10;;;;;;5135440;27;20066;-31
2023/12/08 07:35:17;;;;;;;18.17;11.05;;;4.50;90.00;;;;;;5135224;27;20027;-32
2023/12/08 07:37:44;;;;;;;15.10;10.40;;;4.50;90.10;;;;;;5135656;27;20074;-32
2023/12/08 07:40:09;;;;;;;18.23;11.82;;;4.50;90.10;;;;;;5134931;27;20093;-32
2023/12/08 07:42:38;;;;;;;20.55;11.95;;;4.50;90.10;;;;;;5135386;27;20030;-31
2023/12/08 07:45:08;;;;;;;18.75;11.48;;;4.50;90.10;;;;;;5134794;27;20023;-31
2023/12/08 07:47:33;;;;;;;20.70;12.70;;;4.60;90.20;;;;;;5133628;27;20103;-32
2023/12/08 07:49:59;;;;;;;18.85;11.93;;;4.60;90.20;;;;;;5134817;27;20465;-34
2023/12/08 07:52:25;;;;;;;21.83;11.95;;;4.60;90.20;;;;;;5135228;27;20019;-33
2023/12/08 07:54:51;;;;;;;18.08;11.85;;;4.70;90.20;;;;;;5135353;27;20023;-33
2023/12/08 07:57:16;;;;;;;21.40;12.13;;;4.70;90.20;;;;;;5134996;27;20020;-32
2023/12/08 07:59:42;;;;;;;19.95;11.80;;;4.70;90.20;;;;;;5135205;27;20027;-32
2023/12/08 08:02:07;;;;;;;21.98;12.25;;;4.70;90.20;;;;;;5133436;27;20023;-33
2023/12/08 08:04:33;;;;;;;20.10;12.07;;;4.70;90.30;;;;;;5134826;27;20110;-33
2023/12/08 08:06:58;;;;;;;22.70;12.85;;;4.80;90.30;;;;;;5134961;27;20034;-33
2023/12/08 08:09:24;;;;;;;20.23;11.65;;;4.80;90.30;;;;;;5135031;27;20027;-33
2023/12/08 08:11:50;;;;;;;18.88;11.82;;;4.80;90.30;;;;;;5134977;27;20068;-33
2023/12/08 08:14:15;;;;;;;20.33;11.05;;;4.80;90.30;;;;;;5134925;27;20108;-33
2023/12/08 08:16:41;;;;;;;19.45;12.50;;;4.80;90.30;;;;;;5134642;27;20038;-34
2023/12/08 08:19:07;;;;;;;19.98;11.80;;;4.90;90.40;;;;;;5134560;27;20023;-32
2023/12/08 08:21:32;;;;;;;22.70;11.80;;;4.90;90.40;;;;;;5134501;27;20028;-32
2023/12/08 08:23:58;;;;;;;17.58;11.05;;;4.90;90.40;;;;;;5134566;27;20466;-33
2023/12/08 08:26:24;;;;;;;18.30;11.18;;;4.90;90.40;;;;;;5134471;27;20107;-32
2023/12/08 08:28:50;;;;;;;17.63;11.00;;;4.90;90.40;;;;;;5135034;27;20075;-33
2023/12/08 08:31:18;;;;;;;18.92;11.82;;;5.00;90.40;;;;;;5134239;27;20084;-32
2023/12/08 08:33:44;;;;;;;18.00;11.10;;;5.00;90.40;;;;;;5134520;27;20114;-31
2023/12/08 08:36:11;;;;;;;18.98;11.50;;;5.00;90.40;;;;;;5134322;27;20051;-34
2023/12/08 08:38:37;;;;;;;18.13;12.00;;;5.00;90.40;;;;;;5133534;27;20019;-32
2023/12/08 08:41:03;;;;;;;17.17;10.32;;;5.00;90.40;;;;;;5134145;27;20027;-33
2023/12/08 08:43:28;;;;;;;19.80;12.20;;;5.10;90.50;;;;;;5134033;27;20042;-27
2023/12/08 08:45:54;;;;;;;23.92;14.52;;;5.10;90.50;;;;;;5134363;27;20019;-30
2023/12/08 08:48:20;;;;;;;23.98;14.02;;;5.10;90.50;;;;;;5133960;27;20054;-29
2023/12/08 08:50:45;;;;;;;20.23;12.50;;;5.10;90.50;;;;;;5133956;27;20466;-28
2023/12/08 08:53:11;;;;;;;18.27;11.43;;;5.10;90.50;;;;;;5133835;27;20034;-32
2023/12/08 08:55:37;;;;;;;20.95;11.98;;;5.20;90.60;;;;;;5133897;27;20023;-30
2023/12/08 08:58:02;;;;;;;17.27;11.55;;;5.20;90.50;;;;;;5133869;27;20071;-30
2023/12/08 09:00:29;;;;;;;15.85;10.52;;;5.20;90.60;;;;;;5133613;27;20034;-30
2023/12/08 09:02:54;;;;;;;17.73;10.90;;;5.20;90.50;;;;;;5133721;27;20426;-31
2023/12/08 09:05:20;;;;;;;21.15;11.57;;;5.20;90.50;;;;;;5133708;27;20023;-33
2023/12/08 09:07:46;;;;;;;17.38;10.65;;;5.20;90.50;;;;;;5133759;27;20026;-33
2023/12/08 09:10:12;;;;;;;17.58;11.10;;;5.20;90.60;;;;;;5133822;27;20019;-36
2023/12/08 09:12:37;;;;;;;23.02;12.60;;;5.30;90.60;;;;;;5133459;27;20015;-37
2023/12/08 09:15:03;;;;;;;18.38;10.98;;;5.30;90.60;;;;;;5133232;27;20034;-37
2023/12/08 09:17:29;;;;;;;17.63;10.60;;;5.30;90.60;;;;;;5133683;27;20023;-31
2023/12/08 09:19:55;;;;;;;16.35;10.73;;;5.30;90.60;;;;;;5133400;27;20543;-28
2023/12/08 09:22:21;;;;;;;17.00;10.80;;;5.40;90.60;;;;;;5133420;27;20027;-32
2023/12/08 09:24:46;;;;;;;19.05;11.20;;;5.40;90.60;;;;;;5133003;27;20095;-30
2023/12/08 09:27:12;;;;;;;17.90;10.82;;;5.50;90.70;;;;;;5133134;27;20075;-30
2023/12/08 09:29:37;;;;;;;14.60;9.60;;;5.50;90.60;;;;;;5133093;27;20042;-36
2023/12/08 09:32:03;;;;;;;15.48;9.73;;;5.60;90.60;;;;;;5132958;27;20046;-33
2023/12/08 09:34:29;;;;;;;16.83;10.20;;;5.50;90.60;;;;;;5132787;27;20027;-28
2023/12/08 09:36:55;;;;;;;15.05;9.93;;;5.60;90.60;;;;;;5133435;27;20035;-29
2023/12/08 09:39:21;;;;;;;15.00;9.27;;;5.60;90.60;;;;;;5133391;27;20106;-44
2023/12/08 09:41:49;;;;;;;14.27;9.05;;;5.60;90.60;;;;;;5132779;27;20529;-44
2023/12/08 09:44:14;;;;;;;15.50;8.80;;;5.60;90.70;;;;;;5132990;27;20587;-45
2023/12/08 09:46:43;;;;;;;12.60;8.38;;;5.60;90.70;;;;;;5132943;27;20016;-44
2023/12/08 09:49:28;;;;;;;15.55;9.80;;;5.60;90.70;;;;;;5132975;27;20015;-44
2023/12/08 09:51:55;;;;;;;15.52;9.73;;;5.60;90.70;;;;;;5131864;27;20483;-35
2023/12/08 09:54:21;;;;;;;16.80;10.02;;;5.60;90.70;;;;;;5132790;27;20411;-35
2023/12/08 09:56:52;;;;;;;16.95;10.82;;;5.70;90.70;;;;;;5133130;27;20322;-35
2023/12/08 09:59:23;;;;;;;15.77;10.15;;;5.70;90.70;;;;;;5132643;27;20027;-35
2023/12/08 10:01:49;;;;;;;19.33;11.07;;;5.70;90.70;;;;;;5132757;27;20505;-34
2023/12/08 10:04:15;;;;;;;18.15;11.38;;;5.70;90.70;;;;;;5133012;27;20031;-35
2023/12/08 10:06:40;;;;;;;19.25;11.32;;;5.80;90.80;;;;;;5132763;27;20063;-36
2023/12/08 10:09:07;;;;;;;23.08;11.68;;;5.80;90.80;;;;;;5132598;27;20391;-36
2023/12/08 10:11:33;;;;;;;17.02;11.05;;;5.80;90.80;;;;;;5132771;27;20031;-35
2023/12/08 10:14:00;;;;;;;20.85;11.45;;;5.80;90.80;;;;;;5132835;27;20031;-35
2023/12/08 10:16:27;;;;;;;24.92;11.48;;;5.80;90.80;;;;;;5132435;27;20058;-37
2023/12/08 10:19:04;;;;;;;24.67;13.95;;;5.90;90.80;;;;;;5131116;28;20130;-34
2023/12/08 10:21:30;;;;;;;20.65;12.55;;;5.90;90.80;;;;;;5132220;27;20019;-34
2023/12/08 10:24:00;;;;;;;22.48;12.98;;;5.90;90.90;;;;;;5132228;27;20049;-33
2023/12/08 10:26:27;;;;;;;26.85;13.68;;;5.90;90.80;;;;;;5132472;27;20073;-34
2023/12/08 10:28:56;;;;;;;23.98;13.98;;;6.00;90.90;;;;;;5132483;27;20030;-33
2023/12/08 10:31:22;;;;;;;26.40;14.95;;;6.00;91.20;;;;;;5132056;27;20042;-35
2023/12/08 10:33:49;;;;;;;30.88;15.07;;;6.00;90.90;;;;;;5132327;27;20031;-34
2023/12/08 10:36:15;;;;;;;29.27;15.85;;;6.00;90.90;;;;;;5132390;27;20102;-34
2023/12/08 10:38:41;;;;;;;27.35;14.80;;;6.10;90.90;;;;;;5132391;28;20023;-35
2023/12/08 10:41:12;;;;;;;27.90;15.23;;;6.10;91.20;;;;;;5132015;27;20367;-34
2023/12/08 10:43:39;;;;;;;32.45;15.45;;;6.10;90.90;;;;;;5130973;28;20036;-34
2023/12/08 10:46:06;;;;;;;30.88;15.45;;;6.10;90.90;;;;;;5132404;27;20028;-34
2023/12/08 10:48:33;;;;;;;30.15;15.00;;;6.20;91.00;;;;;;5132334;27;20020;-35
2023/12/08 10:50:59;;;;;;;35.47;15.75;;;6.20;91.00;;;;;;5132018;27;20386;-34
2023/12/08 10:53:25;;;;;;;31.27;15.85;;;6.20;90.90;;;;;;5132367;27;20450;-34
2023/12/08 10:55:52;;;;;;;37.97;17.73;;;6.20;91.00;;;;;;5131984;27;20033;-35
2023/12/08 10:58:20;;;;;;;34.95;16.55;;;6.30;91.00;;;;;;5131952;27;20471;-35
2023/12/08 11:00:48;;;;;;;40.13;17.35;;;6.20;91.00;;;;;;5131738;27;20122;-34
2023/12/08 11:03:19;;;;;;;33.58;17.05;;;6.30;91.00;;;;;;5135259;27;20027;-34
2023/12/08 11:05:49;;;;;;;38.80;16.42;;;6.30;91.00;;;;;;5135995;27;20076;-34
2023/12/08 11:08:18;;;;;;;35.40;16.58;;;6.30;91.10;;;;;;5135840;27;20035;-35
2023/12/08 11:10:51;;;;;;;40.45;16.98;;;6.40;91.10;;;;;;5136019;27;20497;-34
2023/12/08 11:13:29;;;;;;;39.38;18.15;;;6.40;91.10;;;;;;5136086;27;20047;-35
2023/12/08 11:16:03;;;;;;;42.25;19.15;;;6.40;91.10;;;;;;5135698;27;20095;-35
2023/12/08 11:18:30;;;;;;;36.90;16.55;;;6.40;91.10;;;;;;5135480;27;20055;-35
2023/12/08 11:20:56;;;;;;;39.25;17.35;;;6.50;91.10;;;;;;5135588;27;20138;-34
2023/12/08 11:23:23;;;;;;;38.13;17.48;;;6.50;91.10;;;;;;5135504;27;20043;-35
2023/12/08 11:25:57;;;;;;;39.53;17.90;;;6.50;91.10;;;;;;5135764;27;20038;-34
2023/12/08 11:28:26;;;;;;;39.88;18.55;;;6.60;91.10;;;;;;5135552;27;20019;-35
2023/12/08 11:31:03;;;;;;;36.28;18.48;;;6.60;91.10;;;;;;5135053;27;20043;-35
2023/12/08 11:33:42;;;;;;;43.53;18.90;;;6.70;91.10;;;;;;5134749;27;20039;-34
2023/12/08 11:36:11;;;;;;;42.97;17.90;;;6.70;91.10;;;;;;5135308;27;20031;-34
2023/12/08 11:38:40;;;;;;;40.45;18.45;;;6.70;91.10;;;;;;5135078;27;20039;-34
2023/12/08 11:41:15;;;;;;;42.53;18.75;;;6.70;91.10;;;;;;5135411;27;20031;-34
2023/12/08 11:43:45;;;;;;;38.55;18.40;;;6.80;91.10;;;;;;5135235;27;20491;-35
2023/12/08 11:46:12;;;;;;;35.85;17.77;;;6.80;91.10;;;;;;5135005;27;20031;-34
2023/12/08 11:48:38;;;;;;;42.28;17.77;;;6.80;91.10;;;;;;5134860;27;20027;-33
2023/12/08 11:51:05;;;;;;;42.60;18.08;;;6.90;91.10;;;;;;5135212;27;20015;-34
2023/12/08 11:53:47;;;;;;;40.92;17.75;;;6.90;91.10;;;;;;5134835;27;20023;-32
2023/12/08 11:56:37;;;;;;;43.13;19.08;;;7.00;91.10;;;;;;5135213;27;20023;-34
2023/12/08 11:59:03;;;;;;;38.97;18.27;;;7.00;91.10;;;;;;5134657;27;20027;-35
2023/12/08 12:01:29;;;;;;;41.70;18.98;;;7.00;91.10;;;;;;5134616;27;20024;-33
2023/12/08 12:03:55;;;;;;;45.10;19.70;;;7.00;91.10;;;;;;5134933;27;20266;-35
2023/12/08 12:06:21;;;;;;;37.05;17.92;;;7.10;91.10;;;;;;5135218;27;20037;-36
2023/12/08 12:08:47;;;;;;;40.63;19.13;;;7.10;91.10;;;;;;5134428;27;20032;-34
2023/12/08 12:11:14;;;;;;;35.53;17.50;;;7.10;91.10;;;;;;5134471;27;20030;-35
2023/12/08 12:13:43;;;;;;;43.38;18.90;;;7.10;91.10;;;;;;5133414;27;20447;-35
2023/12/08 12:16:09;;;;;;;44.85;18.77;;;7.20;91.20;;;;;;5134822;27;20023;-35
2023/12/08 12:18:35;;;;;;;36.78;18.40;;;7.20;91.10;;;;;;5134237;27;20450;-35
2023/12/08 12:21:00;;;;;;;39.67;18.63;;;7.20;91.20;;;;;;5134301;27;20111;-34
2023/12/08 12:23:26;;;;;;;41.63;18.67;;;7.20;91.20;;;;;;5134441;27;20019;-35
2023/12/08 12:25:51;;;;;;;43.42;18.08;;;7.20;91.20;;;;;;5133349;27;20027;-33
2023/12/08 12:28:17;;;;;;;47.83;20.20;;;7.30;91.20;;;;;;5134267;27;20024;-35
2023/12/08 12:30:48;;;;;;;44.95;20.25;;;7.30;91.20;;;;;;5134065;27;20047;-34
2023/12/08 12:33:14;;;;;;;47.10;19.80;;;7.30;91.20;;;;;;5134239;27;20027;-34
2023/12/08 12:35:39;;;;;;;39.88;17.88;;;7.40;91.30;;;;;;5134352;27;20034;-35
2023/12/08 12:38:05;;;;;;;41.00;18.17;;;7.40;91.30;;;;;;5134147;27;20447;-34